createdAt,value
2019-06-27T00:00:25.135Z,82.50
2019-06-27T00:02:54.398Z,82.70
2019-06-27T00:05:22.129Z,82.40
2019-06-27T00:07:49.909Z,83.20
2019-06-27T00:10:18.255Z,82.50
2019-06-27T00:12:46.382Z,82.40
2019-06-27T00:15:14.235Z,82.40
2019-06-27T00:17:42.094Z,83.80
2019-06-27T00:20:09.959Z,83.80
2019-06-27T00:22:40.881Z,83.90
2019-06-27T00:25:07.579Z,83.80
2019-06-27T00:27:35.434Z,83.80
2019-06-27T00:30:03.304Z,83.60
2019-06-27T00:32:31.947Z,83.50
2019-06-27T00:34:59.607Z,84.00
2019-06-27T00:37:27.416Z,84.00
2019-06-27T00:39:55.310Z,84.20
2019-06-27T00:42:23.055Z,83.90
2019-06-27T00:44:50.622Z,83.80
2019-06-27T00:47:18.391Z,84.00
2019-06-27T00:49:46.054Z,85.90
2019-06-27T00:52:13.826Z,85.60
2019-06-27T00:54:41.492Z,84.80
2019-06-27T00:57:14.012Z,85.40
2019-06-27T00:59:38.846Z,85.70
2019-06-27T01:02:06.619Z,86.20
2019-06-27T01:04:34.294Z,85.70
2019-06-27T01:07:02.080Z,85.60
2019-06-27T01:09:29.915Z,85.60
2019-06-27T01:11:57.697Z,85.60
2019-06-27T01:14:25.548Z,85.80
2019-06-27T01:16:53.287Z,85.70
2019-06-27T01:19:20.987Z,85.90
2019-06-27T01:21:49.340Z,86.10
2019-06-27T01:24:17.204Z,88.20
2019-06-27T01:26:44.871Z,89.50
2019-06-27T01:29:12.647Z,90.30
2019-06-27T01:31:40.517Z,90.80
2019-06-27T01:34:08.297Z,91.00
2019-06-27T01:36:36.061Z,91.60
2019-06-27T01:39:04.200Z,91.90
2019-06-27T01:41:31.958Z,91.80
2019-06-27T01:43:59.910Z,92.10
2019-06-27T01:46:53.426Z,92.10
2019-06-27T01:49:21.311Z,91.60
2019-06-27T01:51:49.090Z,91.50
2019-06-27T01:54:16.766Z,91.70
2019-06-27T01:56:44.443Z,91.70
2019-06-27T01:59:12.190Z,91.90
2019-06-27T02:01:39.953Z,91.90
2019-06-27T02:04:07.828Z,91.60
2019-06-27T02:06:35.564Z,91.50
2019-06-27T02:09:04.571Z,91.70
2019-06-27T02:11:32.367Z,91.40
2019-06-27T02:14:00.225Z,91.20
2019-06-27T02:16:27.883Z,91.30
2019-06-27T02:18:55.678Z,91.20
2019-06-27T02:21:23.267Z,91.70
2019-06-27T02:23:51.023Z,92.10
2019-06-27T02:26:18.699Z,92.50
2019-06-27T02:28:46.427Z,93.10
2019-06-27T02:31:14.278Z,93.10
2019-06-27T02:33:42.038Z,93.20
2019-06-27T02:36:09.830Z,93.50
2019-06-27T02:38:37.532Z,93.10
2019-06-27T02:41:05.259Z,93.00
2019-06-27T02:43:33.527Z,93.00
2019-06-27T02:46:01.384Z,92.80
2019-06-27T02:48:29.050Z,93.00
2019-06-27T02:50:56.714Z,92.90
2019-06-27T02:53:24.389Z,92.50
2019-06-27T02:55:52.221Z,92.50
2019-06-27T02:58:31.306Z,92.50
2019-06-27T03:00:49.620Z,92.80
2019-06-27T03:03:17.415Z,93.00
2019-06-27T03:05:45.246Z,92.90
2019-06-27T03:08:13.037Z,92.70
2019-06-27T03:10:40.904Z,92.60
2019-06-27T03:13:08.573Z,92.60
2019-06-27T03:15:36.347Z,92.80
2019-06-27T03:18:04.159Z,92.70
2019-06-27T03:20:32.110Z,93.00
2019-06-27T03:22:59.961Z,92.90
2019-06-27T03:25:27.751Z,93.00
2019-06-27T03:27:55.483Z,92.90
2019-06-27T03:30:36.292Z,92.70
2019-06-27T03:33:04.176Z,93.10
2019-06-27T03:35:31.916Z,93.40
2019-06-27T03:37:59.675Z,93.60
2019-06-27T03:40:27.334Z,93.70
2019-06-27T03:42:55.105Z,94.00
2019-06-27T03:45:22.790Z,93.90
2019-06-27T03:47:50.551Z,94.00
2019-06-27T03:50:18.320Z,94.00
2019-06-27T03:52:46.103Z,94.00
2019-06-27T03:55:13.944Z,93.70
2019-06-27T03:57:44.910Z,93.50
2019-06-27T04:00:15.870Z,93.50
2019-06-27T04:02:45.195Z,93.60
2019-06-27T04:05:13.087Z,93.70
2019-06-27T04:07:40.839Z,93.80
2019-06-27T04:10:08.515Z,93.90
2019-06-27T04:12:36.507Z,93.70
2019-06-27T04:15:04.780Z,93.80
2019-06-27T04:17:33.263Z,93.90
2019-06-27T04:20:01.037Z,94.10
2019-06-27T04:22:29.663Z,94.20
2019-06-27T04:25:03.654Z,94.40
2019-06-27T04:27:32.137Z,94.10
2019-06-27T04:29:59.812Z,94.30
2019-06-27T04:32:27.627Z,94.30
2019-06-27T04:34:55.298Z,94.10
2019-06-27T04:37:23.045Z,94.30
2019-06-27T04:39:50.734Z,94.10
2019-06-27T04:42:18.486Z,94.40
2019-06-27T04:44:46.220Z,94.90
2019-06-27T04:47:13.921Z,94.50
2019-06-27T04:49:41.692Z,94.50
2019-06-27T04:52:09.360Z,94.60
2019-06-27T04:54:37.140Z,94.90
2019-06-27T04:57:04.831Z,94.80
2019-06-27T04:59:51.477Z,94.80
2019-06-27T05:02:02.111Z,94.80
2019-06-27T05:04:30.171Z,94.80
2019-06-27T05:06:57.853Z,94.80
2019-06-27T05:09:25.597Z,94.70
2019-06-27T05:11:53.301Z,94.40
2019-06-27T05:14:21.185Z,94.50
2019-06-27T05:16:48.924Z,94.80
2019-06-27T05:19:16.615Z,94.40
2019-06-27T05:21:44.334Z,94.60
2019-06-27T05:24:12.399Z,94.70
2019-06-27T05:26:40.134Z,94.70
2019-06-27T05:29:07.977Z,94.40
2019-06-27T05:31:35.732Z,94.30
2019-06-27T05:34:03.510Z,94.50
2019-06-27T05:36:31.270Z,94.60
2019-06-27T05:38:59.236Z,94.60
2019-06-27T05:41:26.916Z,94.60
2019-06-27T05:43:54.586Z,95.00
2019-06-27T05:46:22.350Z,94.80
2019-06-27T05:48:50.059Z,95.40
2019-06-27T05:51:17.892Z,94.60
2019-06-27T05:53:45.858Z,94.60
2019-06-27T05:56:13.804Z,94.80
2019-06-27T05:58:41.469Z,94.80
2019-06-27T06:01:09.242Z,95.00
2019-06-27T06:03:36.927Z,94.80
2019-06-27T06:06:04.715Z,94.90
2019-06-27T06:08:32.381Z,94.60
2019-06-27T06:11:00.149Z,94.30
2019-06-27T06:13:27.910Z,94.40
2019-06-27T06:15:55.661Z,94.40
2019-06-27T06:18:23.432Z,94.30
2019-06-27T06:20:51.070Z,94.50
2019-06-27T06:23:18.765Z,94.10
2019-06-27T06:25:46.440Z,94.70
2019-06-27T06:28:14.105Z,94.30
2019-06-27T06:30:44.826Z,95.50
2019-06-27T06:33:11.614Z,93.50
2019-06-27T06:35:39.391Z,94.80
2019-06-27T06:38:07.185Z,94.40
2019-06-27T06:40:34.923Z,93.80
2019-06-27T06:43:02.697Z,93.30
2019-06-27T06:45:30.358Z,93.10
2019-06-27T06:47:58.190Z,93.50
2019-06-27T06:50:25.855Z,93.30
2019-06-27T06:52:53.671Z,93.50
2019-06-27T06:55:21.327Z,94.00
2019-06-27T06:57:49.084Z,93.50
2019-06-27T07:00:17.161Z,94.00
2019-06-27T07:02:45.344Z,93.20
2019-06-27T07:05:13.222Z,92.90
2019-06-27T07:07:41.049Z,94.30
2019-06-27T07:10:09.138Z,93.70
2019-06-27T07:12:37.296Z,93.30
2019-06-27T07:15:05.128Z,93.40
2019-06-27T07:17:33.689Z,93.00
2019-06-27T07:20:01.645Z,93.30
2019-06-27T07:22:30.793Z,93.90
2019-06-27T07:24:58.478Z,94.10
2019-06-27T07:27:26.374Z,93.10
2019-06-27T07:29:54.042Z,93.70
2019-06-27T07:32:21.881Z,92.90
2019-06-27T07:34:49.594Z,92.60
2019-06-27T07:37:17.354Z,93.20
2019-06-27T07:39:45.051Z,93.20
2019-06-27T07:42:12.713Z,93.20
2019-06-27T07:44:40.359Z,92.80
2019-06-27T07:47:08.048Z,92.60
2019-06-27T07:49:35.850Z,93.50
2019-06-27T07:52:03.652Z,93.10
2019-06-27T07:54:31.425Z,93.20
2019-06-27T07:56:59.133Z,92.40
2019-06-27T07:59:26.892Z,93.50
2019-06-27T08:01:54.534Z,93.30
2019-06-27T08:04:22.310Z,92.70
2019-06-27T08:06:49.973Z,92.30
2019-06-27T08:09:17.730Z,91.90
2019-06-27T08:11:45.429Z,93.20
2019-06-27T08:14:13.274Z,92.10
2019-06-27T08:16:40.967Z,92.80
2019-06-27T08:19:08.804Z,92.60
2019-06-27T08:21:36.433Z,92.10
2019-06-27T08:24:04.210Z,92.20
2019-06-27T08:26:31.866Z,92.30
2019-06-27T08:28:59.623Z,93.30
2019-06-27T08:31:27.471Z,93.60
2019-06-27T08:33:55.309Z,93.10
2019-06-27T08:36:23.019Z,91.80
2019-06-27T08:38:50.766Z,92.00
2019-06-27T08:41:18.478Z,91.30
2019-06-27T08:43:46.141Z,93.20
2019-06-27T08:46:13.809Z,91.40
2019-06-27T08:48:41.485Z,90.90
2019-06-27T08:51:09.385Z,90.80
2019-06-27T08:53:36.970Z,91.20
2019-06-27T08:56:04.734Z,89.90
2019-06-27T08:58:32.418Z,91.30
2019-06-27T09:01:00.169Z,91.70
2019-06-27T09:03:27.854Z,90.40
2019-06-27T09:05:55.605Z,90.70
2019-06-27T09:08:23.282Z,90.00
2019-06-27T09:10:50.993Z,90.70
2019-06-27T09:13:18.671Z,89.60
2019-06-27T09:15:46.428Z,91.20
2019-06-27T09:18:14.110Z,90.00
2019-06-27T09:20:41.994Z,90.00
2019-06-27T09:23:10.885Z,90.50
2019-06-27T09:25:38.710Z,90.60
2019-06-27T09:28:06.782Z,88.20
2019-06-27T09:30:34.534Z,87.50
2019-06-27T09:33:02.270Z,90.70
2019-06-27T09:35:30.111Z,89.70
2019-06-27T09:37:57.753Z,88.80
2019-06-27T09:40:25.519Z,88.70
2019-06-27T09:42:53.313Z,85.80
2019-06-27T09:45:21.242Z,85.30
2019-06-27T09:47:49.829Z,89.20
2019-06-27T09:50:21.548Z,82.70
2019-06-27T09:52:48.414Z,87.10
2019-06-27T09:55:16.893Z,86.30
2019-06-27T09:57:44.829Z,82.80
2019-06-27T10:00:13.115Z,84.00
2019-06-27T10:02:42.838Z,82.00
2019-06-27T10:05:11.077Z,83.90
2019-06-27T10:07:39.455Z,84.30
2019-06-27T10:10:07.336Z,80.00
2019-06-27T10:12:42.104Z,82.30
2019-06-27T10:15:05.146Z,83.70
2019-06-27T10:17:33.711Z,80.90
2019-06-27T10:20:01.380Z,78.60
2019-06-27T10:22:30.729Z,77.20
2019-06-27T10:24:58.433Z,79.10
2019-06-27T10:27:26.209Z,80.10
2019-06-27T10:29:54.010Z,77.80
2019-06-27T10:32:21.866Z,81.40
2019-06-27T10:34:49.576Z,77.90
2019-06-27T10:37:17.330Z,81.90
2019-06-27T10:39:44.909Z,83.00
2019-06-27T10:42:12.681Z,79.40
2019-06-27T10:44:40.370Z,80.00
2019-06-27T10:47:08.133Z,80.20
2019-06-27T10:49:35.818Z,76.90
2019-06-27T10:52:03.566Z,76.50
2019-06-27T10:54:31.390Z,76.40
2019-06-27T10:56:59.051Z,75.20
2019-06-27T10:59:26.809Z,75.70
2019-06-27T11:01:54.513Z,74.30
2019-06-27T11:04:22.270Z,74.80
2019-06-27T11:06:49.857Z,78.10
2019-06-27T11:09:17.667Z,76.50
2019-06-27T11:11:45.470Z,74.00
2019-06-27T11:14:13.235Z,76.00
2019-06-27T11:16:40.915Z,76.70
2019-06-27T11:19:08.661Z,72.70
2019-06-27T11:21:36.370Z,73.80
2019-06-27T11:24:04.163Z,72.70
2019-06-27T11:28:59.663Z,75.00
2019-06-27T11:31:27.362Z,71.60
2019-06-27T11:33:55.202Z,71.70
2019-06-27T11:36:22.889Z,72.00
2019-06-27T11:38:50.744Z,68.30
2019-06-27T11:41:18.459Z,70.10
2019-06-27T11:43:46.327Z,71.10
2019-06-27T11:46:14.141Z,75.10
2019-06-27T11:48:41.855Z,71.60
2019-06-27T11:51:09.629Z,69.80
2019-06-27T11:53:37.443Z,70.80
2019-06-27T11:56:05.203Z,66.20
2019-06-27T11:58:32.901Z,69.10
2019-06-27T12:01:00.657Z,65.40
2019-06-27T12:03:28.347Z,66.80
2019-06-27T12:05:56.130Z,65.10
2019-06-27T12:08:23.826Z,66.40
2019-06-27T12:10:51.589Z,63.20
2019-06-27T12:13:19.308Z,66.50
2019-06-27T12:15:47.016Z,64.70
2019-06-27T12:18:14.714Z,64.50
2019-06-27T12:20:42.387Z,63.50
2019-06-27T12:23:10.100Z,64.80
2019-06-27T12:25:37.938Z,63.30
2019-06-27T12:28:05.719Z,66.70
2019-06-27T12:30:33.588Z,64.30
2019-06-27T12:33:01.353Z,62.00
2019-06-27T12:35:29.114Z,62.20
2019-06-27T12:37:56.825Z,60.00
2019-06-27T12:40:24.628Z,60.20
2019-06-27T12:42:52.428Z,64.20
2019-06-27T12:45:20.594Z,58.60
2019-06-27T12:47:48.503Z,61.20
2019-06-27T12:50:17.517Z,60.30
2019-06-27T12:52:45.716Z,60.40
2019-06-27T12:55:13.503Z,62.10
2019-06-27T12:57:41.284Z,61.90
2019-06-27T13:00:09.558Z,62.10
2019-06-27T13:02:38.051Z,61.00
2019-06-27T13:05:06.027Z,62.00
2019-06-27T13:07:34.284Z,63.00
2019-06-27T13:10:02.153Z,60.00
2019-06-27T13:12:31.517Z,65.20
2019-06-27T13:14:59.221Z,61.30
2019-06-27T13:17:26.970Z,63.60
2019-06-27T13:19:54.625Z,62.00
2019-06-27T13:22:22.393Z,61.70
2019-06-27T13:24:50.081Z,61.30
2019-06-27T13:27:17.822Z,60.40
2019-06-27T13:29:45.617Z,62.30
2019-06-27T13:32:13.444Z,59.50
2019-06-27T13:34:41.329Z,61.30
2019-06-27T13:37:09.190Z,63.20
2019-06-27T13:39:36.974Z,61.10
2019-06-27T13:42:04.743Z,60.70
2019-06-27T13:44:32.423Z,63.20
2019-06-27T13:47:00.164Z,65.30
2019-06-27T13:49:27.943Z,65.80
2019-06-27T13:51:55.609Z,64.70
2019-06-27T13:54:23.385Z,64.70
2019-06-27T13:56:51.042Z,62.50
2019-06-27T13:59:18.786Z,63.20
2019-06-27T14:01:46.479Z,64.70
2019-06-27T14:04:14.219Z,63.00
2019-06-27T14:06:41.886Z,64.20
2019-06-27T14:09:21.918Z,64.20
2019-06-27T14:11:39.377Z,63.90
2019-06-27T14:14:10.449Z,64.40
2019-06-27T14:16:36.953Z,60.70
2019-06-27T14:19:04.748Z,63.10
2019-06-27T14:21:32.446Z,62.80
2019-06-27T14:24:00.182Z,61.50
2019-06-27T14:26:27.906Z,65.50
2019-06-27T14:28:55.747Z,66.20
2019-06-27T14:31:23.441Z,63.90
2019-06-27T14:33:51.390Z,66.70
2019-06-27T14:36:19.099Z,65.60
2019-06-27T14:38:46.929Z,62.40
2019-06-27T14:41:14.654Z,66.30
2019-06-27T14:43:42.471Z,65.80
2019-06-27T14:46:10.159Z,64.10
2019-06-27T14:48:37.943Z,63.90
2019-06-27T14:51:05.759Z,61.20
2019-06-27T14:53:33.537Z,63.90
2019-06-27T14:56:01.392Z,64.40
2019-06-27T14:58:33.114Z,60.70
2019-06-27T15:00:58.746Z,63.90
2019-06-27T15:03:26.343Z,62.40
2019-06-27T15:05:54.088Z,64.40
2019-06-27T15:08:21.781Z,63.00
2019-06-27T15:10:49.622Z,65.00
2019-06-27T15:13:17.495Z,65.40
2019-06-27T15:15:45.234Z,63.70
2019-06-27T15:18:16.360Z,64.40
2019-06-27T15:20:42.522Z,63.20
2019-06-27T15:23:10.314Z,62.50
2019-06-27T15:25:38.073Z,62.70
2019-06-27T15:28:05.998Z,63.20
2019-06-27T15:30:33.838Z,62.50
2019-06-27T15:33:01.551Z,63.00
2019-06-27T15:35:29.424Z,63.20
2019-06-27T15:37:57.286Z,62.80
2019-06-27T15:40:25.074Z,64.10
2019-06-27T15:42:52.755Z,65.10
2019-06-27T15:45:20.635Z,65.30
2019-06-27T15:47:48.507Z,62.40
2019-06-27T15:50:16.463Z,63.70
2019-06-27T15:52:44.330Z,64.20
2019-06-27T15:55:12.530Z,63.50
2019-06-27T15:57:40.698Z,61.60
2019-06-27T16:00:09.126Z,62.30
2019-06-27T16:02:37.210Z,63.00
2019-06-27T16:05:05.110Z,63.00
2019-06-27T16:07:33.272Z,63.40
2019-06-27T16:10:00.984Z,62.20
2019-06-27T16:12:30.347Z,61.20
2019-06-27T16:14:58.016Z,61.90
2019-06-27T16:17:25.779Z,60.70
2019-06-27T16:19:53.569Z,59.70
2019-06-27T17:21:36.302Z,56.60
2019-06-27T17:24:04.313Z,57.10
2019-06-27T17:26:32.138Z,56.80
2019-06-27T17:28:59.925Z,57.10
2019-06-27T17:31:27.831Z,57.00
2019-06-27T17:33:55.673Z,56.50
2019-06-27T17:36:23.361Z,55.20
2019-06-27T17:38:51.440Z,58.80
2019-06-27T17:41:19.323Z,59.60
2019-06-27T17:43:47.026Z,57.30
2019-06-27T17:46:14.799Z,56.70
2019-06-27T17:48:42.510Z,55.40
2019-06-27T17:51:41.409Z,55.80
2019-06-27T17:54:09.142Z,55.80
2019-06-27T17:56:37.018Z,56.20
2019-06-27T17:59:04.906Z,55.60
2019-06-27T18:01:32.722Z,57.20
2019-06-27T18:04:00.416Z,56.80
2019-06-27T18:06:28.246Z,57.50
2019-06-27T18:08:55.947Z,57.30
2019-06-27T18:11:23.699Z,58.60
2019-06-27T18:13:51.485Z,57.00
2019-06-27T18:16:19.266Z,58.00
2019-06-27T18:18:46.984Z,55.30
2019-06-27T18:21:14.794Z,55.60
2019-06-27T18:23:42.482Z,55.80
2019-06-27T18:26:10.372Z,55.40
2019-06-27T18:28:38.238Z,56.10
2019-06-27T18:31:06.137Z,55.50
2019-06-27T18:33:33.917Z,55.70
2019-06-27T18:36:03.145Z,54.00
2019-06-27T18:38:31.357Z,55.50
2019-06-27T18:40:59.254Z,56.40
2019-06-27T18:43:26.937Z,55.90
2019-06-27T18:45:54.738Z,55.70
2019-06-27T18:48:22.440Z,54.90
2019-06-27T18:50:50.128Z,55.60
2019-06-27T18:53:18.011Z,56.70
2019-06-27T18:55:45.828Z,56.10
2019-06-27T18:58:13.603Z,56.50
2019-06-27T19:00:41.451Z,56.40
2019-06-27T19:03:09.303Z,56.10
2019-06-27T19:05:37.291Z,55.00
2019-06-27T19:08:05.004Z,54.00
2019-06-27T19:10:32.824Z,54.90
2019-06-27T19:13:00.596Z,55.60
2019-06-27T19:15:28.384Z,55.20
2019-06-27T19:17:56.187Z,55.50
2019-06-27T19:20:41.396Z,54.10
2019-06-27T19:23:48.754Z,54.90
2019-06-27T19:26:18.170Z,54.40
2019-06-27T19:28:45.995Z,53.90
2019-06-27T19:31:13.893Z,55.80
2019-06-27T19:33:41.946Z,55.80
2019-06-27T19:36:09.836Z,55.40
2019-06-27T19:38:37.760Z,55.20
2019-06-27T19:41:05.492Z,54.20
2019-06-27T19:43:33.306Z,54.20
2019-06-27T19:46:01.088Z,54.60
2019-06-27T19:48:28.945Z,55.00
2019-06-27T19:50:56.647Z,54.80
2019-06-27T19:53:24.534Z,54.40
2019-06-27T19:55:52.282Z,52.40
2019-06-27T19:58:20.179Z,53.50
2019-06-27T20:00:47.872Z,52.00
2019-06-27T20:03:15.673Z,53.10
2019-06-27T20:05:43.381Z,54.20
2019-06-27T20:08:18.959Z,52.80
2019-06-27T20:10:41.141Z,52.70
2019-06-27T20:13:08.880Z,52.60
2019-06-27T20:15:36.723Z,51.80
2019-06-27T20:18:04.594Z,51.90
2019-06-27T20:20:32.445Z,51.30
2019-06-27T20:23:00.320Z,52.70
2019-06-27T20:25:28.241Z,51.40
2019-06-27T20:27:55.979Z,50.00
2019-06-27T20:30:23.836Z,49.10
2019-06-27T20:32:53.177Z,50.90
2019-06-27T20:35:21.012Z,51.30
2019-06-27T20:37:48.752Z,52.40
2019-06-27T20:40:16.788Z,50.50
2019-06-27T20:42:44.834Z,51.70
2019-06-27T20:45:13.017Z,51.50
2019-06-27T20:47:40.940Z,50.90
2019-06-27T20:50:09.169Z,51.00
2019-06-27T20:52:38.133Z,49.10
2019-06-27T20:55:06.126Z,50.50
2019-06-27T20:57:34.260Z,50.80
2019-06-27T21:00:02.073Z,50.00
2019-06-27T21:02:31.284Z,50.40
2019-06-27T21:04:59.146Z,50.90
2019-06-27T21:07:26.901Z,50.00
2019-06-27T21:09:54.629Z,48.70
2019-06-27T21:12:22.388Z,50.40
2019-06-27T21:14:50.122Z,50.30
2019-06-27T21:17:18.118Z,50.00
2019-06-27T21:19:45.814Z,50.60
2019-06-27T21:22:13.604Z,49.30
2019-06-27T21:24:41.332Z,49.90
2019-06-27T21:27:09.146Z,51.00
2019-06-27T21:29:36.966Z,51.90
2019-06-27T21:32:04.770Z,51.10
2019-06-27T21:34:32.533Z,51.70
2019-06-27T21:37:00.332Z,51.50
2019-06-27T21:39:28.146Z,51.20
2019-06-27T21:41:55.947Z,51.40
2019-06-27T21:44:23.679Z,51.70
2019-06-27T21:46:51.507Z,51.90
2019-06-27T21:49:19.339Z,51.90
2019-06-27T21:51:47.142Z,52.10
2019-06-27T21:54:14.912Z,51.90
2019-06-27T21:56:42.747Z,52.40
2019-06-27T21:59:10.435Z,52.90
2019-06-27T22:01:38.218Z,52.90
2019-06-27T22:04:05.985Z,53.00
2019-06-27T22:06:33.886Z,53.40
2019-06-27T22:09:03.147Z,53.30
2019-06-27T22:11:31.901Z,53.30
2019-06-27T22:13:59.601Z,53.50
2019-06-27T22:16:27.571Z,53.20
2019-06-27T22:18:55.254Z,53.20
2019-06-27T22:21:23.041Z,53.60
2019-06-27T22:23:50.946Z,53.40
2019-06-27T22:26:18.719Z,54.60
2019-06-27T22:28:46.705Z,54.00
2019-06-27T22:31:14.361Z,53.70
2019-06-27T22:33:42.200Z,53.30
2019-06-27T22:36:10.002Z,54.10
2019-06-27T22:38:55.987Z,54.10
2019-06-27T22:41:43.182Z,53.60
2019-06-27T22:44:30.965Z,53.70
2019-06-27T22:47:18.741Z,54.20
2019-06-27T22:49:49.077Z,54.60
2019-06-27T22:52:35.815Z,55.80
2019-06-27T22:55:06.454Z,55.40
2019-06-27T22:57:35.736Z,56.00
2019-06-27T23:00:04.063Z,55.80
2019-06-27T23:02:32.176Z,56.40
2019-06-27T23:05:00.038Z,56.10
2019-06-27T23:07:27.914Z,56.70
2019-06-27T23:09:57.331Z,56.10
2019-06-27T23:12:25.430Z,56.50
2019-06-27T23:14:53.202Z,55.90
2019-06-27T23:17:20.891Z,57.20
2019-06-27T23:19:48.620Z,56.50
2019-06-27T23:22:16.305Z,56.40
2019-06-27T23:24:44.177Z,56.30
2019-06-27T23:27:11.878Z,56.40
2019-06-27T23:29:39.633Z,57.80
2019-06-27T23:32:07.431Z,57.70
2019-06-27T23:34:35.161Z,57.80
2019-06-27T23:37:02.917Z,58.20
2019-06-27T23:39:30.773Z,58.40
2019-06-27T23:41:58.436Z,58.70
2019-06-27T23:44:26.202Z,58.80
2019-06-27T23:46:53.883Z,59.00
2019-06-27T23:49:21.656Z,59.20
2019-06-27T23:51:49.338Z,58.90
2019-06-27T23:54:17.026Z,59.80
2019-06-27T23:56:44.726Z,59.80
2019-06-27T23:59:12.609Z,59.30
